createdAt,value
2024-02-24T00:04:29.378Z,28.1
2024-02-24T00:09:53.502Z,28.1
2024-02-24T00:15:32.379Z,28.1
2024-02-24T00:21:11.637Z,28.1
2024-02-24T00:26:51.429Z,28.1
2024-02-24T00:32:29.962Z,28.1
2024-02-24T00:43:32.843Z,28
2024-02-24T00:49:12.201Z,28
2024-02-24T00:54:51.090Z,28
2024-02-24T01:00:14.501Z,28
2024-02-24T01:05:53.886Z,27.9
2024-02-24T01:11:32.679Z,27.9
2024-02-24T01:16:56.035Z,27.9
2024-02-24T01:22:35.879Z,27.9
2024-02-24T01:28:14.516Z,27.9
2024-02-24T01:33:53.577Z,27.9
2024-02-24T01:39:32.238Z,27.9
2024-02-24T01:45:10.894Z,27.9
2024-02-24T01:50:50.369Z,27.9
2024-02-24T01:56:28.379Z,27.9
2024-02-24T02:23:43.405Z,27.8
2024-02-24T02:28:50.702Z,27.8
2024-02-24T02:34:31.667Z,27.8
2024-02-24T02:40:10.584Z,27.8
2024-02-24T02:45:49.388Z,27.7
2024-02-24T02:51:37.320Z,27.7
2024-02-24T02:57:16.484Z,27.7
2024-02-24T03:02:55.564Z,27.7
2024-02-24T03:08:19.299Z,27.6
2024-02-24T03:13:30.991Z,27.6
2024-02-24T03:18:38.913Z,27.6
2024-02-24T03:24:17.941Z,27.6
2024-02-24T03:29:56.417Z,27.6
2024-02-24T03:35:35.907Z,27.6
2024-02-24T03:41:14.414Z,27.6
2024-02-24T03:46:37.488Z,27.6
2024-02-24T03:52:01.940Z,27.5
2024-02-24T03:57:40.865Z,27.5
2024-02-24T04:03:19.472Z,27.5
2024-02-24T04:08:58.624Z,27.5
2024-02-24T04:14:38.515Z,27.5
2024-02-24T04:20:18.053Z,27.4
2024-02-24T04:25:56.280Z,27.4
2024-02-24T04:31:35.165Z,27.4
2024-02-24T04:37:15.015Z,27.4
2024-02-24T04:42:53.836Z,27.4
2024-02-24T04:48:17.696Z,27.4
2024-02-24T04:53:41.145Z,27.4
2024-02-24T04:59:04.148Z,27.4
2024-02-24T05:04:27.528Z,27.4
2024-02-24T05:09:51.604Z,27.3
2024-02-24T05:15:15.007Z,27.3
2024-02-24T05:20:39.786Z,27.3
2024-02-24T05:25:49.404Z,27.3
2024-02-24T05:31:12.615Z,27.3
2024-02-24T05:36:41.130Z,27.3
2024-02-24T05:42:06.135Z,27.3
2024-02-24T05:47:28.936Z,27.3
2024-02-24T05:52:52.641Z,27.3
2024-02-24T05:58:33.822Z,27.2
2024-02-24T06:04:12.861Z,27.2
2024-02-24T06:09:52.470Z,27.2
2024-02-24T06:15:31.331Z,27.2
2024-02-24T06:21:13.442Z,27.1
2024-02-24T06:26:36.435Z,27.1
2024-02-24T06:32:14.713Z,27.1
2024-02-24T06:37:54.236Z,27.1
2024-02-24T06:43:44.500Z,27.1
2024-02-24T06:49:39.904Z,27
2024-02-24T06:55:03.042Z,27
2024-02-24T07:00:44.329Z,26.7
2024-02-24T07:06:23.618Z,27
2024-02-24T07:12:02.715Z,27.6
2024-02-24T07:17:42.284Z,27.7
2024-02-24T07:23:23.102Z,27.7
2024-02-24T07:29:04.962Z,27.6
2024-02-24T07:34:46.066Z,27.6
2024-02-24T07:39:56.144Z,27.6
2024-02-24T07:45:34.548Z,27.6
2024-02-24T07:50:58.536Z,27.6
2024-02-24T07:56:36.881Z,27.5
2024-02-24T08:02:16.855Z,27.5
2024-02-24T08:07:56.601Z,27.4
2024-02-24T08:19:01.076Z,28.6
2024-02-24T08:24:24.306Z,29.3
2024-02-24T08:30:02.763Z,29.9
2024-02-24T08:35:42.311Z,30.4
2024-02-24T08:41:06.140Z,31
2024-02-24T08:46:29.370Z,31.4
2024-02-24T08:52:09.925Z,31.6
2024-02-24T08:58:00.874Z,31.8
2024-02-24T09:03:41.759Z,32
2024-02-24T09:09:21.562Z,32.3
2024-02-24T09:15:00.694Z,32.4
2024-02-24T09:20:24.817Z,32.6
2024-02-24T09:26:03.721Z,33.1
2024-02-24T09:31:42.146Z,33.6
2024-02-24T09:37:21.908Z,34.2
2024-02-24T09:42:45.767Z,34.9
2024-02-24T09:48:24.492Z,35.6
2024-02-24T09:54:05.880Z,36.2
2024-02-24T09:59:44.048Z,36.8
2024-02-24T10:05:07.638Z,37.3
2024-02-24T10:10:51.076Z,37.8
2024-02-24T10:16:15.040Z,38.2
2024-02-24T10:21:23.534Z,38.5
2024-02-24T10:26:49.369Z,38.8
2024-02-24T10:32:29.375Z,39.1
2024-02-24T10:38:54.748Z,39.3
2024-02-24T10:44:35.404Z,39.2
2024-02-24T10:50:15.161Z,39.1
2024-02-24T10:55:54.895Z,39.1
2024-02-24T11:01:19.072Z,39.1
2024-02-24T11:06:59.004Z,39
2024-02-24T11:12:23.253Z,38.9
2024-02-24T11:18:12.213Z,38.9
2024-02-24T11:23:40.353Z,38.9
2024-02-24T11:29:18.855Z,38.8
2024-02-24T11:34:59.286Z,38.8
2024-02-24T11:40:38.575Z,38.8
2024-02-24T11:46:17.496Z,38.7
2024-02-24T11:52:00.127Z,38.7
2024-02-24T11:57:39.435Z,38.6
2024-02-24T12:03:18.098Z,38.6
2024-02-24T12:08:26.927Z,38.6
2024-02-24T12:14:08.538Z,38.5
2024-02-24T12:19:48.477Z,38.4
2024-02-24T12:25:28.073Z,38.4
2024-02-24T12:31:06.543Z,38.3
2024-02-24T12:36:46.705Z,38.3
2024-02-24T12:42:25.327Z,38.3
2024-02-24T12:48:10.316Z,38.2
2024-02-24T12:53:52.816Z,38.1
2024-02-24T12:59:31.354Z,38.1
2024-02-24T13:05:13.313Z,38.1
2024-02-24T13:10:53.355Z,38.1
2024-02-24T13:16:32.365Z,38
2024-02-24T13:21:56.658Z,37.9
2024-02-24T13:27:38.061Z,37.9
2024-02-24T13:33:01.154Z,37.8
2024-02-24T13:38:40.973Z,37.8
2024-02-24T13:44:19.074Z,37.8
2024-02-24T13:49:59.611Z,37.8
2024-02-24T13:55:38.306Z,37.6
2024-02-24T14:01:17.968Z,37.6
2024-02-24T14:06:58.477Z,37.6
2024-02-24T14:12:37.854Z,37.5
2024-02-24T14:18:20.271Z,37.5
2024-02-24T14:24:12.087Z,37.6
2024-02-24T14:30:02.118Z,37.4
2024-02-24T14:35:46.091Z,37.4
2024-02-24T14:41:28.125Z,37.4
2024-02-24T14:47:07.040Z,37.3
2024-02-24T14:52:46.251Z,37.3
2024-02-24T14:57:56.082Z,37.2
2024-02-24T15:04:01.076Z,37.3
2024-02-24T15:09:25.752Z,37.1
2024-02-24T15:15:11.796Z,37.1
2024-02-24T15:20:37.453Z,37
2024-02-24T15:26:20.765Z,37
2024-02-24T15:31:59.580Z,37
2024-02-24T15:37:39.268Z,36.9
2024-02-24T15:43:17.534Z,36.9
2024-02-24T15:48:57.673Z,36.9
2024-02-24T15:54:36.707Z,36.8
2024-02-24T16:00:15.680Z,36.8
2024-02-24T16:05:57.397Z,36.8
2024-02-24T16:11:39.079Z,36.7
2024-02-24T16:17:17.504Z,36.7
2024-02-24T16:22:59.937Z,36.7
2024-02-24T16:28:38.467Z,36.6
2024-02-24T16:34:06.065Z,36.6
2024-02-24T16:39:45.258Z,36.6
2024-02-24T16:45:24.454Z,36.4
2024-02-24T16:51:05.053Z,36.4
2024-02-24T16:56:28.683Z,36.4
2024-02-24T17:02:07.830Z,36.4
2024-02-24T17:07:47.713Z,36.3
2024-02-24T17:13:11.876Z,36.3
2024-02-24T17:18:21.560Z,36.3
2024-02-24T17:24:07.465Z,36.2
2024-02-24T17:29:46.481Z,36.2
2024-02-24T17:35:26.338Z,36.1
2024-02-24T17:40:49.880Z,36.1
2024-02-24T17:46:28.206Z,36.1
2024-02-24T17:52:07.994Z,36.1
2024-02-24T18:03:22.100Z,35.9
2024-02-24T18:09:01.917Z,35.9
2024-02-24T18:14:24.777Z,35.9
2024-02-24T18:19:51.627Z,35.9
2024-02-24T18:25:18.205Z,35.8
2024-02-24T18:30:25.716Z,35.8
2024-02-24T18:36:05.476Z,35.8
2024-02-24T18:41:44.809Z,35.8
2024-02-24T18:47:11.279Z,35.6
2024-02-24T18:52:51.505Z,35.6
2024-02-24T18:58:30.302Z,35.5
2024-02-24T19:04:09.338Z,35.5
2024-02-24T19:14:59.320Z,35.4
2024-02-24T19:20:25.505Z,35.3
2024-02-24T19:26:06.156Z,35.3
2024-02-24T19:31:45.301Z,35.2
2024-02-24T19:37:24.571Z,35.2
2024-02-24T19:43:22.346Z,35.1
2024-02-24T19:49:01.916Z,35.1
2024-02-24T19:54:40.942Z,35.1
2024-02-24T20:00:27.721Z,35.1
2024-02-24T20:06:07.186Z,35
2024-02-24T20:11:47.241Z,34.9
2024-02-24T20:17:09.986Z,34.9
2024-02-24T20:22:50.133Z,34.9
2024-02-24T20:28:28.401Z,34.9
2024-02-24T20:34:17.430Z,34.8
2024-02-24T20:39:41.527Z,34.8
2024-02-24T20:45:20.684Z,34.8
2024-02-24T20:50:59.840Z,34.8
2024-02-24T20:56:23.124Z,34.8
2024-02-24T21:02:02.426Z,34.7
2024-02-24T21:07:43.223Z,34.7
2024-02-24T21:13:24.164Z,34.6
2024-02-24T21:19:05.698Z,34.6
2024-02-24T21:24:46.346Z,34.6
2024-02-24T21:30:25.309Z,34.6
2024-02-24T21:36:09.711Z,34.6
2024-02-24T21:41:47.383Z,34.5
2024-02-24T21:47:26.318Z,34.5
2024-02-24T21:53:06.587Z,34.4
2024-02-24T21:58:45.173Z,34.4
2024-02-24T22:04:24.923Z,34.4
2024-02-24T22:10:04.800Z,34.4
2024-02-24T22:15:43.653Z,34.3
2024-02-24T22:21:26.648Z,34.3
2024-02-24T22:27:07.655Z,34.3
2024-02-24T22:33:00.654Z,34.3
2024-02-24T22:38:42.539Z,34.2
2024-02-24T22:44:05.612Z,34.2
2024-02-24T22:49:46.033Z,34.1
2024-02-24T22:55:26.630Z,34.1
2024-02-24T23:00:52.237Z,34.1
2024-02-24T23:06:15.964Z,34.1
2024-02-24T23:11:49.558Z,34.1
2024-02-24T23:17:13.654Z,34
2024-02-24T23:22:37.824Z,34
2024-02-24T23:28:16.567Z,34
2024-02-24T23:33:56.275Z,33.9
2024-02-24T23:39:36.938Z,33.9
2024-02-24T23:45:20.078Z,33.9
2024-02-24T23:50:59.795Z,33.9
2024-02-24T23:56:38.010Z,33.9
